Sheridan, WY

10:41 AM MST on November 26, 2014 (GMT -0700)
Sheridan County | Change Station
CLOSE
Current Station
Airport
Location: Sheridan,
Elevation: 3967 ft
Nearby Weather Stations

Elev 3967 ft 44.76 °N, 106.97 °W | Updated 10 minutes ago

Snow
Snow
28 °F
Feels Like 23 °F
N
5
Wind Variable Wind from ESE

Today
High -- | Low -- °F
--% Chance of Precip.
Yesterday
High -- | Low -- °F
Precip. -- in
7:19 AM 4:30 PM
Waxing Crescent, 21% visible
Pressure 30.19 in
Visibility 2.0 miles
Clouds Mostly Cloudy 3000 ft
Mostly Cloudy 3800 ft
Overcast 4600 ft
Windchill 23 °F
Dew Point 25 °F
Humidity 88%
Rainfall 0.07 in
Snow Depth Not available.
UV 1 out of 12
Pollen .10 out of 12
Air Quality Not available.
Flu Activity Not available.
SPECI KSHR 261731Z AUTO 11004KT 2SM -SN BR BKN030 BKN038 OVC046 M02/M04 A3019 RMK AO2 P0001 T10221039 TSNO

More Conditions Fewer Conditions

Pressure 30.19 in
Visibility 2.0 miles
Clouds Mostly Cloudy 3000 ft
Mostly Cloudy 3800 ft
Overcast 4600 ft
Windchill 23 °F
Dew Point 25 °F
Humidity 88%
Rainfall 0.07 in
Snow Depth Not available.
UV 1 out of 12
Pollen .10 out of 12
Air Quality Not available.
Flu Activity Not available.
SPECI KSHR 261731Z AUTO 11004KT 2SM -SN BR BKN030 BKN038 OVC046 M02/M04 A3019 RMK AO2 P0001 T10221039 TSNO

More Conditions Fewer Conditions

10-Day Weather Forecast

Almanac

Astronomy

Nov. 26, 2014 Rise Set
Actual Time
Civil Twilight
Nautical Twilight
Astronomical Twilight
Moon
Length of Visible Light
Length of Day
Tomorrow will be .
, % of the Moon is Illuminated

Today's Extremes

State Highs State Lows

Community

WunderPhotos

Upload Photos

1,773,808 photos uploaded!

WunderBlogs® & News

Nearby

Air Quality

  Air Quality AQ Index Pollutant
Not available.

Snow Depth

Station Depth Elevation

Earthquake Activity

City Distance Mag. Time & Date
Minimum magnitude displayed is 2.5.

Coastal Water Temperatures

Place Temperature

Nearby Weather Stations